Time;durP1;ratioP1;P1;durP2;ratioP2;P2;SDS_P1;SDS_P2;PMS_P1;PMS_P2;Temp;Humidity;BMP_temperature;BMP_pressure;BME280_temperature;BME280_humidity;BME280_pressure;Samples;Min_cycle;Max_cycle;Signal;HPM_P1;HPM_P2
2023/04/15 00:00:12;;;;;;;11.93;7.13;;;2.00;99.90;;;;;;5033644;28;20045;-79
2023/04/15 00:02:38;;;;;;;11.30;7.47;;;2.00;99.90;;;;;;5035757;28;20029;-79
2023/04/15 00:05:04;;;;;;;11.45;7.13;;;2.00;99.90;;;;;;5045641;28;20045;-79
2023/04/15 00:07:30;;;;;;;10.88;6.70;;;2.00;99.90;;;;;;5033540;28;20114;-79
2023/04/15 00:09:57;;;;;;;9.75;6.03;;;2.00;99.90;;;;;;5032026;28;20104;-79
2023/04/15 00:12:26;;;;;;;9.75;5.70;;;2.00;99.90;;;;;;5033299;28;20032;-79
2023/04/15 00:14:52;;;;;;;9.18;5.80;;;2.00;99.90;;;;;;5032710;28;20091;-79
2023/04/15 00:17:18;;;;;;;9.40;6.00;;;2.00;99.90;;;;;;5042854;28;20376;-79
2023/04/15 00:19:44;;;;;;;8.68;5.78;;;2.00;99.90;;;;;;5039635;28;20140;-79
2023/04/15 00:22:11;;;;;;;11.13;6.28;;;2.00;99.90;;;;;;5042329;28;20045;-79
2023/04/15 00:24:37;;;;;;;9.38;5.80;;;1.90;99.90;;;;;;5039833;28;20521;-79
2023/04/15 00:27:03;;;;;;;8.45;5.57;;;1.90;99.90;;;;;;5052308;28;20041;-79
2023/04/15 00:29:29;;;;;;;9.68;5.90;;;2.00;99.90;;;;;;5036250;28;20502;-79
2023/04/15 00:31:55;;;;;;;9.77;5.90;;;1.90;99.90;;;;;;5040059;28;20498;-79
2023/04/15 00:34:22;;;;;;;8.90;5.35;;;1.90;99.90;;;;;;5047227;28;20029;-79
2023/04/15 00:36:48;;;;;;;8.35;5.30;;;1.90;99.90;;;;;;5050249;28;20038;-80
2023/04/15 00:39:15;;;;;;;8.38;5.30;;;1.90;99.90;;;;;;5036969;28;20072;-80
2023/04/15 00:41:41;;;;;;;6.88;4.15;;;1.90;99.90;;;;;;5037322;28;20108;-79
2023/04/15 00:44:08;;;;;;;10.20;6.03;;;1.90;99.90;;;;;;5035557;28;21078;-79
2023/04/15 00:46:38;;;;;;;9.32;6.00;;;2.00;99.90;;;;;;5037169;28;20060;-79
2023/04/15 00:49:05;;;;;;;10.35;6.88;;;2.00;99.90;;;;;;5051601;28;20116;-79
2023/04/15 00:51:32;;;;;;;12.30;7.18;;;2.00;99.90;;;;;;5055871;28;20562;-79
2023/04/15 00:54:03;;;;;;;10.57;6.78;;;2.00;99.90;;;;;;5039239;28;20395;-79
2023/04/15 00:56:29;;;;;;;15.40;8.70;;;2.00;99.90;;;;;;5038705;28;20084;-79
2023/04/15 00:58:56;;;;;;;24.08;12.07;;;1.90;99.90;;;;;;5037942;28;20091;-79
2023/04/15 01:01:23;;;;;;;18.17;9.55;;;2.00;99.90;;;;;;5037726;28;20041;-80
2023/04/15 01:03:51;;;;;;;15.40;8.25;;;2.00;99.90;;;;;;5052834;28;20029;-79
2023/04/15 01:06:17;;;;;;;15.52;8.25;;;2.00;99.90;;;;;;5050620;28;20041;-80
2023/04/15 01:08:44;;;;;;;13.90;7.57;;;2.00;99.90;;;;;;5040318;28;20513;-80
2023/04/15 01:11:12;;;;;;;10.70;5.97;;;1.90;99.90;;;;;;5038426;28;20030;-80
2023/04/15 01:13:37;;;;;;;9.38;5.53;;;2.00;99.90;;;;;;5044227;28;20083;-79
2023/04/15 01:16:03;;;;;;;9.23;5.25;;;2.00;99.90;;;;;;5041578;28;20037;-80
2023/04/15 01:18:30;;;;;;;10.52;5.97;;;2.00;99.90;;;;;;5048555;28;20042;-80
2023/04/15 01:20:56;;;;;;;9.32;4.90;;;2.00;99.90;;;;;;5035904;28;20036;-80
2023/04/15 01:23:22;;;;;;;10.35;5.32;;;2.00;99.90;;;;;;5036133;28;20491;-79
2023/04/15 01:25:49;;;;;;;8.25;4.90;;;2.00;99.90;;;;;;5046825;28;20040;-80
2023/04/15 01:28:15;;;;;;;9.13;5.32;;;2.10;99.90;;;;;;5035652;28;20037;-80
2023/04/15 01:30:41;;;;;;;7.30;4.53;;;2.00;99.90;;;;;;5036590;28;20038;-80
2023/04/15 01:33:07;;;;;;;8.38;4.63;;;2.00;99.90;;;;;;5045869;28;20033;-80
2023/04/15 01:35:33;;;;;;;8.52;4.72;;;2.00;99.90;;;;;;5053020;28;20137;-79
2023/04/15 01:38:08;;;;;;;8.18;5.10;;;2.00;99.90;;;;;;5039352;28;20053;-80
2023/04/15 01:40:35;;;;;;;9.05;5.22;;;2.00;99.90;;;;;;5038998;28;20034;-80
2023/04/15 01:43:01;;;;;;;11.13;6.53;;;2.00;99.90;;;;;;5039589;28;20125;-80
2023/04/15 01:45:27;;;;;;;10.60;6.43;;;2.00;99.90;;;;;;5033990;28;20565;-81
2023/04/15 01:47:53;;;;;;;9.68;6.40;;;2.00;99.90;;;;;;5043802;28;20036;-80
2023/04/15 01:50:20;;;;;;;10.45;6.88;;;2.00;99.90;;;;;;5047210;28;20038;-80
2023/04/15 01:52:46;;;;;;;9.65;6.20;;;2.00;99.90;;;;;;5047301;28;20440;-80
2023/04/15 01:55:12;;;;;;;10.30;6.57;;;2.00;99.90;;;;;;5055564;28;20421;-80
2023/04/15 01:57:38;;;;;;;9.18;5.82;;;2.00;99.90;;;;;;5055212;28;20167;-80
2023/04/15 02:00:06;;;;;;;11.18;6.68;;;2.00;99.90;;;;;;5054100;28;20045;-80
2023/04/15 02:02:32;;;;;;;32.50;15.00;;;2.00;99.90;;;;;;5055891;28;20033;-80
2023/04/15 02:04:58;;;;;;;45.40;18.65;;;2.00;99.90;;;;;;5055612;28;20052;-80
2023/04/15 02:07:24;;;;;;;30.70;15.27;;;2.00;99.90;;;;;;5054480;28;20037;-80
2023/04/15 02:09:50;;;;;;;24.20;12.07;;;2.00;99.90;;;;;;5055314;28;20035;-80
2023/04/15 02:12:15;;;;;;;19.98;10.43;;;2.10;99.90;;;;;;5055371;28;20112;-80
2023/04/15 02:14:41;;;;;;;16.83;9.05;;;2.10;99.90;;;;;;5052110;28;20041;-80
2023/04/15 02:17:07;;;;;;;11.80;6.93;;;2.10;99.90;;;;;;5042219;28;20048;-80
2023/04/15 02:19:36;;;;;;;11.20;5.88;;;2.10;99.90;;;;;;5035729;28;20391;-80
2023/04/15 02:22:02;;;;;;;8.00;5.07;;;2.00;99.90;;;;;;5035561;28;20034;-80
2023/04/15 02:24:28;;;;;;;7.75;4.70;;;2.00;99.90;;;;;;5040530;28;20119;-80
2023/04/15 02:26:55;;;;;;;8.57;5.32;;;2.00;99.90;;;;;;5038540;28;20036;-80
2023/04/15 02:29:21;;;;;;;8.65;5.20;;;2.00;99.90;;;;;;5035271;28;20034;-80
2023/04/15 02:31:47;;;;;;;8.05;4.82;;;2.00;99.90;;;;;;5035361;28;20488;-80
2023/04/15 02:34:13;;;;;;;8.13;5.15;;;2.00;99.90;;;;;;5033631;28;20033;-80
2023/04/15 02:36:39;;;;;;;8.50;5.68;;;2.00;99.90;;;;;;5035026;28;20100;-80
2023/04/15 02:39:06;;;;;;;11.38;6.07;;;2.00;99.90;;;;;;5034827;28;20110;-80
2023/04/15 02:41:31;;;;;;;10.73;6.43;;;2.00;99.90;;;;;;5038702;28;20037;-80
2023/04/15 02:43:57;;;;;;;9.10;5.70;;;2.00;99.90;;;;;;5031136;28;20048;-79
2023/04/15 02:46:23;;;;;;;10.73;5.88;;;2.10;99.90;;;;;;5036817;28;20080;-79
2023/04/15 02:48:49;;;;;;;9.85;6.25;;;2.10;99.90;;;;;;5040815;28;20513;-79
2023/04/15 02:51:18;;;;;;;10.20;6.20;;;2.10;99.90;;;;;;5041649;28;20021;-79
2023/04/15 02:53:44;;;;;;;11.48;6.50;;;2.10;99.90;;;;;;5040630;28;20029;-80
2023/04/15 02:56:10;;;;;;;11.50;6.38;;;2.10;99.90;;;;;;5040395;28;20034;-80
2023/04/15 02:58:36;;;;;;;11.57;6.82;;;2.00;99.90;;;;;;5034550;28;20029;-80
2023/04/15 03:01:02;;;;;;;10.82;6.60;;;2.00;99.90;;;;;;5034943;28;20044;-80
2023/04/15 03:03:27;;;;;;;11.35;6.78;;;2.00;99.90;;;;;;5040366;28;20049;-80
2023/04/15 03:05:53;;;;;;;11.52;6.93;;;2.00;99.90;;;;;;5038586;28;20033;-80
2023/04/15 03:08:20;;;;;;;10.20;6.55;;;2.00;99.90;;;;;;5040236;28;20076;-80
2023/04/15 03:10:46;;;;;;;9.38;6.30;;;2.00;99.90;;;;;;5037595;28;20033;-80
2023/04/15 03:13:12;;;;;;;12.60;7.45;;;2.10;99.90;;;;;;5050375;28;20038;-80
2023/04/15 03:15:37;;;;;;;10.30;6.22;;;2.00;99.90;;;;;;5053340;28;20025;-80
2023/04/15 03:18:03;;;;;;;10.52;6.65;;;2.10;99.90;;;;;;5054511;28;20092;-80
2023/04/15 03:20:29;;;;;;;9.57;6.45;;;2.10;99.90;;;;;;5050974;28;20033;-80
2023/04/15 03:22:55;;;;;;;12.15;7.22;;;2.10;99.90;;;;;;5035789;28;20033;-80
2023/04/15 03:25:20;;;;;;;10.48;6.53;;;2.10;99.90;;;;;;5036592;28;20040;-79
2023/04/15 03:27:46;;;;;;;10.38;6.88;;;2.10;99.90;;;;;;5037014;28;20037;-79
2023/04/15 03:30:12;;;;;;;11.18;7.03;;;2.10;99.90;;;;;;5053033;28;20079;-79
2023/04/15 03:32:38;;;;;;;10.80;6.25;;;2.10;99.90;;;;;;5049762;28;20057;-80
2023/04/15 03:35:05;;;;;;;10.35;6.50;;;2.10;99.90;;;;;;5042058;28;20117;-80
2023/04/15 03:37:31;;;;;;;8.93;6.18;;;2.10;99.90;;;;;;5044908;28;20044;-79
2023/04/15 03:39:56;;;;;;;12.23;7.05;;;2.10;99.90;;;;;;5047022;28;20049;-80
2023/04/15 03:42:22;;;;;;;11.10;6.38;;;2.10;99.90;;;;;;5043359;28;20091;-80
2023/04/15 03:44:48;;;;;;;12.85;7.30;;;2.10;99.90;;;;;;5040283;28;20140;-80
2023/04/15 03:47:14;;;;;;;15.93;8.23;;;2.10;99.90;;;;;;5039623;28;20063;-80
2023/04/15 03:49:40;;;;;;;13.52;7.82;;;2.10;99.90;;;;;;5054724;28;20044;-79
2023/04/15 03:52:06;;;;;;;17.55;9.48;;;2.10;99.90;;;;;;5053387;28;20033;-79
2023/04/15 03:54:31;;;;;;;16.63;9.55;;;2.10;99.90;;;;;;5045329;28;20033;-79
2023/04/15 03:56:57;;;;;;;16.13;9.18;;;2.00;99.90;;;;;;5037531;28;20092;-80
2023/04/15 03:59:23;;;;;;;19.27;10.73;;;2.00;99.90;;;;;;5037304;28;20049;-79
2023/04/15 04:01:48;;;;;;;18.77;11.50;;;2.00;99.90;;;;;;5046139;28;20041;-79
2023/04/15 04:04:14;;;;;;;18.75;10.73;;;2.00;99.90;;;;;;5035094;28;20050;-79
2023/04/15 04:06:40;;;;;;;17.23;10.20;;;2.00;99.90;;;;;;5047684;28;20084;-79
2023/04/15 04:09:05;;;;;;;20.10;11.07;;;2.00;99.90;;;;;;5043340;28;20029;-79
2023/04/15 04:11:31;;;;;;;17.95;10.43;;;2.00;99.90;;;;;;5052376;28;20059;-80
2023/04/15 04:13:57;;;;;;;18.75;10.88;;;2.00;99.90;;;;;;5054809;28;20112;-79
2023/04/15 04:16:23;;;;;;;22.02;12.27;;;2.00;99.90;;;;;;5045249;28;20491;-79
2023/04/15 04:18:49;;;;;;;21.05;11.40;;;2.00;99.90;;;;;;5035510;28;20555;-80
2023/04/15 04:21:15;;;;;;;19.40;11.60;;;2.00;99.90;;;;;;5035304;28;20037;-79
2023/04/15 04:23:41;;;;;;;20.90;11.80;;;2.00;99.90;;;;;;5034574;28;20034;-78
2023/04/15 04:26:06;;;;;;;20.88;11.07;;;2.00;99.90;;;;;;5051200;28;20048;-80
2023/04/15 04:28:32;;;;;;;19.30;11.25;;;2.00;99.90;;;;;;5043772;28;20045;-79
2023/04/15 04:30:58;;;;;;;19.60;11.13;;;2.00;99.90;;;;;;5041643;28;20084;-79
2023/04/15 04:33:24;;;;;;;17.88;10.65;;;2.00;99.90;;;;;;5023914;28;20046;-79
2023/04/15 04:35:49;;;;;;;15.88;9.77;;;2.00;99.90;;;;;;5049241;28;20100;-79
2023/04/15 04:38:15;;;;;;;15.20;9.30;;;2.00;99.90;;;;;;5043145;28;20030;-80
2023/04/15 04:40:41;;;;;;;19.23;11.43;;;2.00;99.90;;;;;;5042342;28;20136;-79
2023/04/15 04:43:07;;;;;;;19.13;11.32;;;2.10;99.90;;;;;;5042909;28;20475;-79
2023/04/15 04:45:32;;;;;;;18.30;10.60;;;2.10;99.90;;;;;;5043616;28;20068;-79
2023/04/15 04:47:58;;;;;;;20.92;12.52;;;2.10;99.90;;;;;;5034745;28;20037;-79
2023/04/15 04:50:24;;;;;;;23.00;13.98;;;2.10;99.90;;;;;;5038280;28;20044;-79
2023/04/15 04:52:50;;;;;;;29.83;19.63;;;2.10;99.90;;;;;;5035248;28;20402;-80
2023/04/15 04:55:15;;;;;;;28.20;18.27;;;2.10;99.90;;;;;;5038324;28;20033;-80
2023/04/15 04:57:41;;;;;;;19.67;13.00;;;2.10;99.90;;;;;;5046025;28;20494;-81
2023/04/15 05:00:07;;;;;;;18.23;12.48;;;2.10;99.90;;;;;;5040514;28;20044;-80
2023/04/15 05:02:34;;;;;;;15.80;10.70;;;2.10;99.90;;;;;;5037501;28;20034;-79
2023/04/15 05:05:00;;;;;;;16.98;10.50;;;2.10;99.90;;;;;;5041117;28;20037;-80
2023/04/15 05:07:26;;;;;;;19.73;12.02;;;2.10;99.90;;;;;;5039432;28;20115;-81
2023/04/15 05:09:52;;;;;;;18.85;11.07;;;2.10;99.90;;;;;;5040856;28;20491;-80
2023/04/15 05:12:17;;;;;;;19.27;10.95;;;2.10;99.90;;;;;;5045748;28;20079;-80
2023/04/15 05:14:43;;;;;;;18.80;11.20;;;2.10;99.90;;;;;;5037074;28;20029;-80
2023/04/15 05:17:10;;;;;;;17.85;10.45;;;2.10;99.90;;;;;;5050271;28;20033;-82
2023/04/15 05:19:36;;;;;;;17.70;10.73;;;2.10;99.90;;;;;;5054009;28;20041;-81
2023/04/15 05:22:02;;;;;;;19.35;10.55;;;2.10;99.90;;;;;;5042162;28;20529;-79
2023/04/15 05:24:27;;;;;;;22.58;12.80;;;2.10;99.90;;;;;;5037360;28;20041;-81
2023/04/15 05:26:53;;;;;;;21.33;11.57;;;2.20;99.90;;;;;;5051607;28;20373;-80
2023/04/15 05:29:19;;;;;;;22.20;12.77;;;2.20;99.90;;;;;;5052044;28;20112;-81
2023/04/15 05:31:45;;;;;;;23.52;13.65;;;2.20;99.90;;;;;;5052439;28;20030;-80
2023/04/15 05:34:11;;;;;;;26.85;14.15;;;2.20;99.90;;;;;;5037125;28;20021;-80
2023/04/15 05:36:37;;;;;;;26.10;13.13;;;2.20;99.90;;;;;;5041307;28;20105;-79
2023/04/15 05:39:03;;;;;;;19.63;11.70;;;2.20;99.90;;;;;;5037708;28;20049;-80
2023/04/15 05:41:28;;;;;;;20.67;12.32;;;2.20;99.90;;;;;;5046544;28;20125;-80
2023/04/15 05:43:54;;;;;;;21.90;12.50;;;2.20;99.90;;;;;;5046556;28;20549;-80
2023/04/15 05:46:20;;;;;;;19.88;11.95;;;2.20;99.90;;;;;;5041255;28;20438;-80
2023/04/15 05:48:46;;;;;;;20.20;12.90;;;2.20;99.90;;;;;;5047618;28;20045;-80
2023/04/15 05:51:11;;;;;;;18.63;10.85;;;2.20;99.90;;;;;;5038594;28;20484;-79
2023/04/15 05:53:37;;;;;;;19.02;10.27;;;2.20;99.90;;;;;;5041017;28;20044;-80
2023/04/15 05:56:03;;;;;;;16.55;9.73;;;2.20;99.90;;;;;;5043262;28;20037;-79
2023/04/15 05:58:29;;;;;;;18.85;10.85;;;2.20;99.90;;;;;;5044992;28;20403;-80
2023/04/15 06:00:55;;;;;;;16.30;10.40;;;2.20;99.90;;;;;;5037552;28;20033;-81
2023/04/15 06:03:21;;;;;;;20.10;11.60;;;2.20;99.90;;;;;;5041092;28;20514;-81
2023/04/15 06:05:47;;;;;;;16.33;9.75;;;2.10;99.90;;;;;;5044534;28;20038;-80
2023/04/15 06:08:13;;;;;;;28.08;15.55;;;2.10;99.90;;;;;;5041957;28;20044;-80
2023/04/15 06:10:38;;;;;;;104.95;50.05;;;2.10;99.90;;;;;;5045630;28;20029;-80
2023/04/15 06:13:05;;;;;;;16.65;10.20;;;2.10;99.90;;;;;;5054345;28;20084;-81
2023/04/15 06:15:30;;;;;;;14.88;9.32;;;2.10;99.90;;;;;;5053376;28;20041;-79
2023/04/15 06:17:56;;;;;;;14.52;9.02;;;2.10;99.90;;;;;;5049572;28;20041;-80
2023/04/15 06:20:22;;;;;;;13.68;8.40;;;2.10;99.90;;;;;;5035075;28;20040;-80
2023/04/15 06:22:48;;;;;;;13.65;7.97;;;2.10;99.90;;;;;;5039614;28;20041;-80
2023/04/15 06:25:14;;;;;;;10.93;7.28;;;2.10;99.90;;;;;;5041981;28;20100;-79
2023/04/15 06:27:40;;;;;;;12.93;8.20;;;2.10;99.90;;;;;;5043084;28;20501;-80
2023/04/15 06:30:06;;;;;;;12.88;8.75;;;2.10;99.90;;;;;;5044263;28;20029;-80
2023/04/15 06:32:32;;;;;;;13.05;8.57;;;2.10;99.90;;;;;;5043491;28;20033;-80
2023/04/15 06:34:58;;;;;;;11.32;7.50;;;2.10;99.90;;;;;;5040151;28;20129;-80
2023/04/15 06:37:23;;;;;;;11.52;7.25;;;2.10;99.90;;;;;;5044382;28;20041;-80
2023/04/15 06:39:49;;;;;;;13.43;8.48;;;2.20;99.90;;;;;;5044352;28;20067;-80
2023/04/15 06:42:15;;;;;;;12.88;7.53;;;2.20;99.90;;;;;;5045201;28;20108;-80
2023/04/15 06:44:41;;;;;;;13.18;8.75;;;2.20;99.90;;;;;;5043729;28;20045;-80
2023/04/15 06:47:07;;;;;;;13.55;8.23;;;2.20;99.90;;;;;;5037153;28;20121;-80
2023/04/15 06:49:34;;;;;;;12.02;7.60;;;2.20;99.90;;;;;;5037346;28;20036;-81
2023/04/15 06:52:00;;;;;;;17.50;10.98;;;2.10;99.90;;;;;;5041752;28;20037;-80
2023/04/15 06:54:26;;;;;;;13.23;8.25;;;2.20;99.90;;;;;;5057615;28;20497;-80
2023/04/15 06:56:52;;;;;;;13.73;8.35;;;2.20;99.90;;;;;;5058193;28;20048;-80
2023/04/15 06:59:17;;;;;;;14.80;8.73;;;2.20;99.90;;;;;;5056688;28;20506;-80
2023/04/15 07:01:43;;;;;;;13.13;7.68;;;2.20;99.90;;;;;;5056764;28;20402;-80
2023/04/15 07:04:09;;;;;;;11.98;7.18;;;2.30;99.90;;;;;;5045897;28;20041;-81
2023/04/15 07:06:35;;;;;;;10.48;6.57;;;2.40;99.90;;;;;;5045959;28;20037;-81
2023/04/15 07:09:03;;;;;;;11.85;7.78;;;2.40;99.90;;;;;;5048905;28;20043;-80
2023/04/15 07:11:29;;;;;;;12.00;7.82;;;2.40;99.90;;;;;;5049188;28;20114;-80
2023/04/15 07:13:56;;;;;;;13.38;8.70;;;2.50;99.90;;;;;;5047723;28;20414;-80
2023/04/15 07:16:22;;;;;;;12.90;8.43;;;2.60;99.90;;;;;;5044177;28;20056;-81
2023/04/15 07:18:47;;;;;;;13.77;8.38;;;2.60;99.90;;;;;;5048961;28;20041;-78
2023/04/15 07:21:13;;;;;;;11.98;8.02;;;2.60;99.90;;;;;;5045993;28;20105;-80
2023/04/15 07:23:39;;;;;;;11.43;7.35;;;2.70;99.90;;;;;;5037918;28;20038;-80
2023/04/15 07:26:05;;;;;;;12.05;7.30;;;2.70;99.90;;;;;;5044067;28;20076;-81
2023/04/15 07:28:30;;;;;;;13.98;8.82;;;2.80;99.90;;;;;;5037756;28;20029;-79
2023/04/15 07:30:56;;;;;;;11.63;7.07;;;2.80;99.90;;;;;;5040336;28;20131;-80
2023/04/15 07:33:22;;;;;;;11.02;6.85;;;2.80;99.90;;;;;;5037780;28;20029;-81
2023/04/15 07:35:48;;;;;;;12.30;7.50;;;2.80;99.90;;;;;;5057707;28;20052;-79
2023/04/15 07:38:14;;;;;;;7.07;3.63;;;2.90;99.90;;;;;;5057987;28;20091;-80
2023/04/15 07:40:41;;;;;;;6.22;3.65;;;2.80;99.90;;;;;;5058542;28;20495;-81
2023/04/15 07:43:07;;;;;;;7.95;3.60;;;2.90;99.90;;;;;;5059773;28;20037;-80
2023/04/15 07:45:34;;;;;;;6.88;3.65;;;2.80;99.90;;;;;;5055251;28;20040;-80
2023/04/15 07:48:01;;;;;;;7.93;3.92;;;2.90;99.90;;;;;;5044417;28;20033;-80
2023/04/15 07:50:27;;;;;;;5.53;3.47;;;2.80;99.90;;;;;;5041487;28;20038;-79
2023/04/15 07:52:53;;;;;;;6.28;3.28;;;2.80;99.90;;;;;;5047701;28;20036;-81
2023/04/15 07:55:21;;;;;;;5.80;3.45;;;2.90;99.90;;;;;;5046439;28;20029;-81
2023/04/15 07:57:48;;;;;;;8.65;4.03;;;2.90;99.90;;;;;;5040322;28;20037;-80
2023/04/15 08:00:15;;;;;;;5.38;3.05;;;2.90;99.90;;;;;;5043739;28;20087;-80
2023/04/15 08:02:42;;;;;;;5.13;2.65;;;2.90;99.90;;;;;;5047726;28;20037;-81
2023/04/15 08:05:09;;;;;;;7.95;2.90;;;3.00;99.90;;;;;;5043125;28;20030;-78
2023/04/15 08:07:36;;;;;;;3.92;2.55;;;3.00;99.90;;;;;;5031740;28;20561;-80
2023/04/15 08:10:02;;;;;;;6.00;3.20;;;3.00;99.90;;;;;;5056639;28;20082;-80
2023/04/15 08:12:28;;;;;;;6.15;2.90;;;3.00;99.90;;;;;;5055016;28;20037;-81
2023/04/15 08:14:55;;;;;;;5.28;2.60;;;3.00;99.90;;;;;;5034355;28;20045;-81
2023/04/15 08:17:20;;;;;;;4.32;2.63;;;3.10;99.90;;;;;;5035796;28;20068;-80
2023/04/15 08:19:47;;;;;;;7.10;3.55;;;3.10;99.90;;;;;;5043136;28;20045;-80
2023/04/15 08:22:13;;;;;;;8.35;3.78;;;3.10;99.90;;;;;;5040943;28;20029;-80
2023/04/15 08:24:39;;;;;;;10.23;3.55;;;3.10;99.90;;;;;;5049148;28;20029;-80
2023/04/15 08:27:05;;;;;;;4.80;2.88;;;3.10;99.90;;;;;;5042745;28;20415;-80
2023/04/15 08:29:34;;;;;;;6.53;2.88;;;3.20;99.90;;;;;;5051558;28;20033;-80
2023/04/15 08:32:00;;;;;;;6.50;3.35;;;3.30;99.90;;;;;;5040534;28;20037;-80
2023/04/15 08:34:26;;;;;;;7.30;4.10;;;3.30;99.90;;;;;;5033621;28;20034;-80
2023/04/15 08:36:52;;;;;;;9.60;5.05;;;3.40;99.90;;;;;;5045749;28;20044;-79
2023/04/15 08:39:18;;;;;;;8.52;4.20;;;3.40;99.90;;;;;;5037988;28;20053;-80
2023/04/15 08:41:53;;;;;;;8.10;3.92;;;3.50;99.90;;;;;;5044096;28;20026;-80
2023/04/15 08:44:20;;;;;;;7.18;3.70;;;3.50;99.90;;;;;;5045735;28;20058;-79
2023/04/15 08:46:46;;;;;;;7.13;3.60;;;3.50;99.90;;;;;;5045440;28;20498;-80
2023/04/15 08:49:13;;;;;;;9.27;3.75;;;3.50;99.90;;;;;;5042170;28;20068;-80
2023/04/15 08:51:40;;;;;;;6.30;3.42;;;3.60;99.90;;;;;;5053251;28;20033;-79
2023/04/15 08:54:08;;;;;;;10.45;4.55;;;3.50;99.90;;;;;;5050011;28;20131;-80
2023/04/15 08:56:34;;;;;;;7.18;3.67;;;3.50;99.90;;;;;;5036283;28;20041;-79
2023/04/15 08:59:00;;;;;;;7.15;3.97;;;3.50;99.90;;;;;;5050675;28;20383;-79
2023/04/15 09:01:26;;;;;;;7.93;3.60;;;3.50;99.90;;;;;;5045788;28;20045;-79
2023/04/15 09:03:53;;;;;;;9.18;3.58;;;3.40;99.90;;;;;;5046616;28;20490;-79
2023/04/15 09:06:20;;;;;;;7.03;3.78;;;3.40;99.90;;;;;;5043432;28;20079;-80
2023/04/15 09:08:46;;;;;;;10.40;5.47;;;3.30;99.90;;;;;;5057360;28;20033;-78
2023/04/15 09:11:12;;;;;;;8.63;3.97;;;3.30;99.90;;;;;;5056501;28;20025;-79
2023/04/15 09:13:39;;;;;;;8.85;3.60;;;3.30;99.90;;;;;;5048355;28;20056;-80
2023/04/15 09:16:06;;;;;;;7.63;3.40;;;3.30;99.90;;;;;;5053825;28;20094;-79
2023/04/15 09:18:34;;;;;;;5.90;2.70;;;3.30;99.90;;;;;;5052533;28;20033;-79
2023/04/15 09:21:18;;;;;;;9.25;3.03;;;3.20;99.90;;;;;;5039638;28;20391;-79
2023/04/15 09:23:56;;;;;;;5.88;2.88;;;3.20;99.90;;;;;;5039054;28;20037;-79
2023/04/15 09:26:36;;;;;;;6.22;3.42;;;3.20;99.90;;;;;;5039023;28;20033;-80
2023/04/15 09:29:12;;;;;;;7.38;3.80;;;3.20;99.90;;;;;;5038374;28;20395;-80
2023/04/15 09:31:38;;;;;;;6.85;3.88;;;3.20;99.90;;;;;;5039757;28;20061;-79
2023/04/15 09:34:04;;;;;;;6.55;3.72;;;3.20;99.90;;;;;;5039787;28;20038;-79
2023/04/15 09:36:57;;;;;;;5.65;3.53;;;3.30;99.90;;;;;;5059072;28;20024;-80
2023/04/15 09:39:23;;;;;;;5.10;2.67;;;3.30;99.90;;;;;;5048658;28;20071;-79
2023/04/15 09:42:09;;;;;;;5.22;3.42;;;3.30;99.90;;;;;;5043963;28;20045;-79
2023/04/15 09:44:36;;;;;;;12.57;5.45;;;3.30;99.90;;;;;;5048074;28;20179;-80
2023/04/15 09:47:01;;;;;;;11.27;4.63;;;3.30;99.90;;;;;;5041765;28;20042;-79
2023/04/15 09:49:27;;;;;;;9.07;4.03;;;3.30;99.90;;;;;;5037325;28;20040;-79
2023/04/15 09:51:59;;;;;;;10.63;4.10;;;3.30;99.90;;;;;;5046407;28;20034;-79
2023/04/15 09:54:35;;;;;;;8.98;4.53;;;3.30;99.90;;;;;;5041295;28;20056;-79
2023/04/15 09:57:11;;;;;;;8.52;4.00;;;3.30;99.90;;;;;;5041545;28;20368;-79
2023/04/15 09:59:36;;;;;;;5.80;3.47;;;3.30;99.90;;;;;;5043576;28;20460;-78
2023/04/15 10:02:05;;;;;;;7.85;2.95;;;3.30;99.90;;;;;;5050728;28;20069;-80
2023/04/15 10:04:35;;;;;;;8.43;3.53;;;3.30;99.90;;;;;;5056080;28;20090;-79
2023/04/15 10:07:03;;;;;;;7.78;3.47;;;3.20;99.90;;;;;;5056571;28;20021;-79
2023/04/15 10:09:30;;;;;;;4.75;2.67;;;3.20;99.90;;;;;;5056526;28;20037;-80
2023/04/15 10:11:56;;;;;;;5.15;3.17;;;3.20;99.90;;;;;;5054022;28;20033;-80
2023/04/15 10:14:23;;;;;;;6.80;3.13;;;3.20;99.90;;;;;;5046845;28;20456;-79
2023/04/15 10:16:51;;;;;;;5.88;2.78;;;3.20;99.90;;;;;;5036637;28;20037;-79
2023/04/15 10:19:24;;;;;;;5.32;2.25;;;3.30;99.90;;;;;;5050294;28;20065;-79
2023/04/15 10:21:51;;;;;;;5.40;3.00;;;3.30;99.90;;;;;;5040494;28;20041;-79
2023/04/15 10:24:17;;;;;;;4.35;2.55;;;3.30;99.90;;;;;;5044367;28;20037;-78
2023/04/15 10:26:43;;;;;;;4.57;2.17;;;3.30;99.90;;;;;;5052264;28;20095;-78
2023/04/15 10:29:10;;;;;;;7.13;3.47;;;3.30;99.90;;;;;;5057819;28;20068;-78
2023/04/15 10:31:37;;;;;;;6.00;2.67;;;3.30;99.90;;;;;;5043804;28;20052;-78
2023/04/15 10:34:05;;;;;;;8.82;4.00;;;3.30;99.90;;;;;;5042611;28;20025;-79
2023/04/15 10:36:32;;;;;;;9.52;3.72;;;3.30;99.90;;;;;;5043504;28;20060;-79
2023/04/15 10:38:57;;;;;;;14.55;6.43;;;3.20;99.90;;;;;;5043089;28;20048;-79
2023/04/15 10:41:25;;;;;;;10.93;5.93;;;3.20;99.90;;;;;;5042764;28;20033;-79
2023/04/15 10:44:03;;;;;;;10.65;5.07;;;3.30;99.90;;;;;;5043534;28;20029;-79
2023/04/15 10:46:38;;;;;;;12.43;4.88;;;3.30;99.90;;;;;;5063275;28;20061;-79
2023/04/15 10:49:15;;;;;;;9.18;4.97;;;3.30;99.90;;;;;;5062429;28;20025;-79
2023/04/15 10:51:49;;;;;;;10.40;5.43;;;3.40;99.90;;;;;;5056710;28;20506;-79
2023/04/15 10:54:24;;;;;;;7.30;3.13;;;3.40;99.90;;;;;;5041819;28;20034;-79
2023/04/15 10:57:08;;;;;;;6.35;3.10;;;3.40;99.90;;;;;;5050750;28;20044;-78
2023/04/15 10:59:38;;;;;;;10.02;5.05;;;3.40;99.90;;;;;;5041020;28;20037;-78
2023/04/15 11:02:04;;;;;;;8.55;4.80;;;3.50;99.90;;;;;;5049578;28;20038;-78
2023/04/15 11:04:52;;;;;;;7.07;3.90;;;3.50;99.90;;;;;;5038543;28;20037;-78
2023/04/15 11:07:37;;;;;;;7.45;4.50;;;3.50;99.90;;;;;;5049500;28;20073;-79
2023/04/15 11:10:29;;;;;;;12.55;7.00;;;3.50;99.90;;;;;;5058545;28;20036;-79
2023/04/15 11:13:03;;;;;;;12.00;5.60;;;3.60;99.90;;;;;;5022125;28;20117;-79
2023/04/15 11:15:41;;;;;;;9.20;4.25;;;3.60;99.90;;;;;;5039388;28;20567;-79
2023/04/15 11:18:14;;;;;;;8.68;4.03;;;3.70;99.90;;;;;;5041398;28;20120;-78
2023/04/15 11:20:44;;;;;;;12.82;4.90;;;3.70;99.90;;;;;;5056063;28;20048;-79
2023/04/15 11:23:10;;;;;;;8.35;3.47;;;3.70;99.90;;;;;;5061024;28;20033;-80
2023/04/15 11:25:36;;;;;;;8.15;3.67;;;3.70;99.90;;;;;;5053678;28;20036;-79
2023/04/15 11:28:02;;;;;;;8.15;3.70;;;3.70;99.90;;;;;;5039231;28;20033;-79
2023/04/15 11:30:33;;;;;;;8.48;3.88;;;3.70;99.90;;;;;;5040293;28;20045;-79
2023/04/15 11:33:01;;;;;;;4.97;2.63;;;3.70;99.90;;;;;;5059859;28;20039;-79
2023/04/15 11:35:27;;;;;;;8.38;3.85;;;3.70;99.90;;;;;;5059729;28;20342;-79
2023/04/15 11:37:54;;;;;;;8.15;4.07;;;3.70;99.90;;;;;;5060118;28;20060;-79
2023/04/15 11:40:27;;;;;;;17.42;5.93;;;3.80;99.90;;;;;;5059463;28;20061;-80
2023/04/15 11:43:12;;;;;;;11.55;4.30;;;3.80;99.90;;;;;;5060015;28;20033;-79
2023/04/15 11:45:47;;;;;;;12.80;4.07;;;3.90;99.90;;;;;;5059964;28;20029;-79
2023/04/15 11:48:13;;;;;;;6.43;3.00;;;3.90;99.90;;;;;;5060461;28;20559;-79
2023/04/15 11:50:40;;;;;;;8.55;3.72;;;3.90;99.90;;;;;;5060010;28;20064;-80
2023/04/15 11:53:07;;;;;;;7.22;3.33;;;3.90;99.90;;;;;;5045334;28;20025;-79
2023/04/15 11:55:52;;;;;;;5.75;3.08;;;4.00;99.90;;;;;;5049962;28;20112;-79
2023/04/15 11:58:23;;;;;;;10.32;5.30;;;4.00;99.90;;;;;;5059372;28;20203;-79
2023/04/15 12:00:54;;;;;;;15.57;7.10;;;4.00;99.90;;;;;;5059860;28;20131;-79
2023/04/15 12:03:29;;;;;;;25.85;11.98;;;4.10;99.90;;;;;;5056584;28;20064;-79
2023/04/15 12:06:15;;;;;;;23.95;11.32;;;4.20;99.90;;;;;;5042351;28;20061;-78
2023/04/15 12:09:02;;;;;;;16.77;12.25;;;4.20;99.90;;;;;;5056648;28;20072;-78
2023/04/15 12:11:43;;;;;;;16.42;10.20;;;4.30;99.90;;;;;;5038716;28;20120;-79
2023/04/15 12:14:11;;;;;;;9.00;3.55;;;4.30;99.90;;;;;;5038191;28;20037;-79
2023/04/15 12:16:41;;;;;;;16.52;7.15;;;4.40;99.90;;;;;;5046411;28;20124;-78
2023/04/15 12:19:12;;;;;;;13.95;7.07;;;4.40;99.90;;;;;;5056264;28;20482;-79
2023/04/15 12:21:40;;;;;;;9.05;4.38;;;4.50;99.90;;;;;;5040011;28;20098;-79
2023/04/15 12:24:08;;;;;;;6.32;2.35;;;4.50;99.90;;;;;;5042959;28;20451;-78
2023/04/15 12:26:36;;;;;;;4.75;2.70;;;4.60;99.90;;;;;;5045352;28;20112;-79
2023/04/15 12:29:09;;;;;;;5.60;3.40;;;4.60;99.90;;;;;;5059256;28;20039;-79
2023/04/15 12:31:36;;;;;;;7.18;3.00;;;4.60;99.90;;;;;;5049706;28;20039;-79
2023/04/15 12:34:02;;;;;;;15.32;7.22;;;4.70;99.90;;;;;;5043012;28;20068;-78
2023/04/15 12:36:34;;;;;;;9.98;4.82;;;4.70;99.90;;;;;;5048521;28;20029;-79
2023/04/15 12:39:02;;;;;;;7.28;3.22;;;4.80;99.90;;;;;;5062951;28;20080;-79
2023/04/15 12:41:27;;;;;;;6.57;3.35;;;4.80;99.90;;;;;;5055488;28;20033;-79
2023/04/15 12:43:53;;;;;;;9.00;4.05;;;4.80;99.90;;;;;;5063110;28;20037;-79
2023/04/15 12:46:19;;;;;;;9.70;3.83;;;4.90;99.90;;;;;;5047763;28;20041;-79
2023/04/15 12:48:45;;;;;;;5.72;2.42;;;4.90;99.90;;;;;;5050077;28;20029;-78
2023/04/15 12:51:10;;;;;;;7.63;2.80;;;4.90;99.90;;;;;;5056947;28;20518;-79